Time;durP1;ratioP1;P1;durP2;ratioP2;P2;SDS_P1;SDS_P2;PMS_P1;PMS_P2;Temp;Humidity;BMP_temperature;BMP_pressure;BME280_temperature;BME280_humidity;BME280_pressure;Samples;Min_cycle;Max_cycle;Signal;HPM_P1;HPM_P2
2023/09/24 00:00:38;;;;;;;2.17;2.07;;;;;;;;;;5088770;28;20239;-83
2023/09/24 00:03:05;;;;;;;1.83;1.73;;;;;;;;;;5074860;28;20205;-83
2023/09/24 00:05:32;;;;;;;4.53;2.60;;;;;;;;;;5074726;28;20260;-83
2023/09/24 00:07:59;;;;;;;3.53;2.53;;;;;;;;;;5075035;28;20209;-84
2023/09/24 00:10:27;;;;;;;3.43;2.07;;;;;;;;;;5074452;28;20237;-83
2023/09/24 00:12:54;;;;;;;4.13;2.33;;;;;;;;;;5075096;28;20236;-83
2023/09/24 00:15:21;;;;;;;3.63;1.93;;;;;;;;;;5074174;28;20233;-83
2023/09/24 00:17:50;;;;;;;2.53;2.33;;;;;;;;;;5075201;28;20217;-83
2023/09/24 00:20:19;;;;;;;2.23;2.07;;;;;;;;;;5074139;28;20256;-83
2023/09/24 00:22:47;;;;;;;2.13;2.03;;;;;;;;;;5074977;28;20267;-82
2023/09/24 00:25:14;;;;;;;2.40;2.20;;;;;;;;;;5074180;28;20241;-83
2023/09/24 00:27:41;;;;;;;2.57;2.37;;;;;;;;;;5074481;28;20229;-83
2023/09/24 00:30:09;;;;;;;1.90;1.80;;;;;;;;;;5073965;28;20235;-83
2023/09/24 00:32:36;;;;;;;2.37;2.17;;;;;;;;;;5074781;28;20201;-83
2023/09/24 00:35:05;;;;;;;3.20;1.93;;;;;;;;;;5073888;28;20749;-83
2023/09/24 00:37:33;;;;;;;2.53;2.33;;;;;;;;;;5074638;28;20369;-83
2023/09/24 00:40:02;;;;;;;3.23;2.00;;;;;;;;;;5074038;28;20229;-83
2023/09/24 00:42:31;;;;;;;2.87;2.37;;;;;;;;;;5074232;28;20687;-83
2023/09/24 00:44:58;;;;;;;2.33;2.23;;;;;;;;;;5074253;28;20236;-83
2023/09/24 00:47:25;;;;;;;2.47;2.27;;;;;;;;;;5094841;28;20185;-83
2023/09/24 00:49:54;;;;;;;2.00;1.90;;;;;;;;;;5094202;28;20247;-83
2023/09/24 00:52:23;;;;;;;4.23;2.30;;;;;;;;;;5094775;28;20208;-83
2023/09/24 00:54:50;;;;;;;2.13;2.03;;;;;;;;;;5094134;28;20323;-83
2023/09/24 00:57:17;;;;;;;2.43;2.23;;;;;;;;;;5094078;28;20588;-83
2023/09/24 00:59:46;;;;;;;2.90;2.17;;;;;;;;;;5093679;28;20232;-84
2023/09/24 01:02:13;;;;;;;2.43;2.23;;;;;;;;;;5092801;28;20200;-83
2023/09/24 01:04:42;;;;;;;2.27;2.17;;;;;;;;;;5093586;28;20248;-83
2023/09/24 01:07:09;;;;;;;2.30;2.20;;;;;;;;;;5089704;28;20217;-83
2023/09/24 01:09:38;;;;;;;2.50;2.30;;;;;;;;;;5093282;28;20228;-83
2023/09/24 01:12:05;;;;;;;2.70;2.47;;;;;;;;;;5093535;28;20209;-83
2023/09/24 01:14:33;;;;;;;2.50;2.30;;;;;;;;;;5073270;28;20240;-83
2023/09/24 01:17:00;;;;;;;2.50;2.30;;;;;;;;;;5073828;28;20278;-83
2023/09/24 01:19:27;;;;;;;3.07;2.13;;;;;;;;;;5073298;28;20233;-83
2023/09/24 01:22:00;;;;;;;2.50;2.23;;;;;;;;;;5073753;28;20247;-83
2023/09/24 01:24:29;;;;;;;3.37;2.50;;;;;;;;;;5073288;28;20317;-83
2023/09/24 01:26:57;;;;;;;3.67;2.13;;;;;;;;;;5073707;28;20287;-83
2023/09/24 01:29:24;;;;;;;4.27;2.37;;;;;;;;;;5073015;28;20233;-83
2023/09/24 01:31:52;;;;;;;2.60;2.40;;;;;;;;;;5073801;28;20209;-83
2023/09/24 01:34:19;;;;;;;2.30;2.20;;;;;;;;;;5073292;28;20278;-84
2023/09/24 01:36:46;;;;;;;2.87;2.27;;;;;;;;;;5073149;28;20718;-83
2023/09/24 01:39:16;;;;;;;2.50;2.30;;;;;;;;;;5072593;28;20765;-84
2023/09/24 01:41:43;;;;;;;3.93;2.20;;;;;;;;;;5073484;28;20201;-83
2023/09/24 01:44:13;;;;;;;2.00;1.90;;;;;;;;;;5073023;28;20237;-84
2023/09/24 01:46:40;;;;;;;2.10;2.00;;;;;;;;;;5073146;28;20244;-84
2023/09/24 01:49:10;;;;;;;2.50;2.30;;;;;;;;;;5072321;28;20208;-84
2023/09/24 01:51:37;;;;;;;6.20;2.63;;;;;;;;;;5073238;28;20208;-83
2023/09/24 01:54:04;;;;;;;2.40;2.20;;;;;;;;;;5072851;28;20573;-84
2023/09/24 01:56:33;;;;;;;2.83;2.30;;;;;;;;;;5072739;28;20683;-84
2023/09/24 01:59:00;;;;;;;2.47;2.27;;;;;;;;;;5072114;28;20627;-84
2023/09/24 02:01:28;;;;;;;2.57;2.30;;;;;;;;;;5072732;28;20210;-84
2023/09/24 02:03:59;;;;;;;2.27;2.17;;;;;;;;;;5072325;28;20205;-84
2023/09/24 02:06:26;;;;;;;2.20;2.10;;;;;;;;;;5072474;28;20232;-83
2023/09/24 02:08:53;;;;;;;2.00;1.90;;;;;;;;;;5071966;28;20683;-84
2023/09/24 02:11:21;;;;;;;1.90;1.80;;;;;;;;;;5072708;28;20694;-84
2023/09/24 02:13:50;;;;;;;2.17;1.97;;;;;;;;;;5072924;28;20209;-84
2023/09/24 02:16:17;;;;;;;2.07;1.97;;;;;;;;;;5072115;28;20229;-84
2023/09/24 02:18:44;;;;;;;2.17;1.93;;;;;;;;;;5072397;28;20678;-84
2023/09/24 02:21:14;;;;;;;2.60;2.40;;;;;;;;;;5072131;28;20240;-84
2023/09/24 02:23:41;;;;;;;3.33;2.00;;;;;;;;;;5072435;28;20306;-84
2023/09/24 02:26:08;;;;;;;2.60;2.40;;;;;;;;;;5071737;28;20244;-84
2023/09/24 02:28:38;;;;;;;2.10;2.00;;;;;;;;;;5072027;28;20201;-84
2023/09/24 02:31:06;;;;;;;2.50;2.20;;;;;;;;;;5071855;28;20233;-84
2023/09/24 02:33:34;;;;;;;2.90;2.47;;;;;;;;;;5072136;28;20211;-84
2023/09/24 02:36:01;;;;;;;2.10;2.00;;;;;;;;;;5071628;28;20259;-83
2023/09/24 02:38:28;;;;;;;2.23;2.07;;;;;;;;;;5072299;28;20202;-83
2023/09/24 02:40:56;;;;;;;2.20;2.10;;;;;;;;;;5071659;28;20783;-84
2023/09/24 02:43:23;;;;;;;2.40;2.20;;;;;;;;;;5072435;28;20205;-84
2023/09/24 02:45:50;;;;;;;2.40;2.20;;;;;;;;;;5071551;28;20722;-84
2023/09/24 02:48:19;;;;;;;2.23;1.93;;;;;;;;;;5071778;28;20198;-84
2023/09/24 02:50:46;;;;;;;2.43;2.33;;;;;;;;;;5071704;28;20237;-84
2023/09/24 02:53:13;;;;;;;3.83;2.33;;;;;;;;;;5072254;28;20300;-84
2023/09/24 02:55:40;;;;;;;2.80;2.50;;;;;;;;;;5071436;28;20236;-83
2023/09/24 02:58:08;;;;;;;2.37;2.10;;;;;;;;;;5071999;28;20229;-84
2023/09/24 03:00:36;;;;;;;2.87;2.30;;;;;;;;;;5071323;28;20233;-84
2023/09/24 03:03:05;;;;;;;2.60;2.40;;;;;;;;;;5071764;28;20750;-84
2023/09/24 03:05:33;;;;;;;2.07;1.93;;;;;;;;;;5071396;28;20306;-84
2023/09/24 03:08:02;;;;;;;2.00;1.90;;;;;;;;;;5071967;28;20209;-83
2023/09/24 03:10:30;;;;;;;2.23;2.13;;;;;;;;;;5071243;28;20236;-83
2023/09/24 03:12:58;;;;;;;2.77;2.57;;;;;;;;;;5077036;28;20209;-83
2023/09/24 03:15:25;;;;;;;2.30;2.20;;;;;;;;;;5071235;28;20248;-84
2023/09/24 03:17:52;;;;;;;2.50;2.30;;;;;;;;;;5071723;28;20600;-84
2023/09/24 03:20:19;;;;;;;2.23;2.13;;;;;;;;;;5071240;28;20245;-84
2023/09/24 03:22:49;;;;;;;2.40;2.20;;;;;;;;;;5071884;28;20208;-84
2023/09/24 03:25:17;;;;;;;2.20;2.10;;;;;;;;;;5071274;28;20655;-84
2023/09/24 03:27:44;;;;;;;2.40;2.20;;;;;;;;;;5071837;28;20295;-84
2023/09/24 03:30:13;;;;;;;4.30;2.20;;;;;;;;;;5070739;28;20233;-83
2023/09/24 03:32:41;;;;;;;2.30;2.20;;;;;;;;;;5071413;28;20205;-84
2023/09/24 03:35:09;;;;;;;4.40;2.30;;;;;;;;;;5071189;28;20229;-84
2023/09/24 03:37:40;;;;;;;2.47;2.27;;;;;;;;;;5074311;28;20229;-83
2023/09/24 03:40:10;;;;;;;2.63;2.20;;;;;;;;;;5075128;28;20761;-84
2023/09/24 03:42:37;;;;;;;4.10;2.27;;;;;;;;;;5075685;28;20205;-84
2023/09/24 03:45:05;;;;;;;2.20;2.10;;;;;;;;;;5074850;28;20261;-84
2023/09/24 03:47:32;;;;;;;2.70;2.50;;;;;;;;;;5075286;28;20209;-83
2023/09/24 03:49:59;;;;;;;4.40;2.30;;;;;;;;;;5074806;28;20229;-83
2023/09/24 03:52:26;;;;;;;2.57;2.40;;;;;;;;;;5075227;28;20209;-83
2023/09/24 03:54:54;;;;;;;3.33;2.20;;;;;;;;;;5074944;28;20245;-84
2023/09/24 03:57:27;;;;;;;2.47;2.27;;;;;;;;;;5075338;28;20233;-83
2023/09/24 03:59:54;;;;;;;5.10;2.73;;;;;;;;;;5074792;28;20243;-83
2023/09/24 04:02:21;;;;;;;2.20;2.00;;;;;;;;;;5075250;28;20205;-84
2023/09/24 04:04:48;;;;;;;2.23;2.13;;;;;;;;;;5074688;28;20240;-83
2023/09/24 04:07:15;;;;;;;2.30;2.20;;;;;;;;;;5076409;28;20229;-84
2023/09/24 04:09:43;;;;;;;2.10;2.00;;;;;;;;;;5074523;28;20233;-84
2023/09/24 04:12:13;;;;;;;2.67;2.30;;;;;;;;;;5075326;28;20208;-84
2023/09/24 04:14:41;;;;;;;2.30;2.10;;;;;;;;;;5074635;28;20233;-84
2023/09/24 04:17:09;;;;;;;2.20;2.03;;;;;;;;;;5074870;28;20712;-83
2023/09/24 04:19:36;;;;;;;2.27;2.07;;;;;;;;;;5074619;28;20239;-83
2023/09/24 04:22:03;;;;;;;2.67;2.10;;;;;;;;;;5075018;28;20217;-83
2023/09/24 04:24:30;;;;;;;2.23;2.07;;;;;;;;;;5074425;28;20233;-84
2023/09/24 04:26:57;;;;;;;2.63;2.03;;;;;;;;;;5074711;28;20218;-84
2023/09/24 04:29:24;;;;;;;2.27;2.17;;;;;;;;;;5074338;28;20229;-84
2023/09/24 04:31:53;;;;;;;2.10;2.00;;;;;;;;;;5074482;28;20690;-83
2023/09/24 04:34:20;;;;;;;2.33;2.13;;;;;;;;;;5074136;28;20702;-84
2023/09/24 04:36:48;;;;;;;2.00;1.90;;;;;;;;;;5074448;28;20586;-83
2023/09/24 04:39:15;;;;;;;2.07;1.97;;;;;;;;;;5074177;28;20261;-84
2023/09/24 04:41:44;;;;;;;2.40;1.93;;;;;;;;;;5074694;28;20205;-84
2023/09/24 04:44:11;;;;;;;2.10;2.00;;;;;;;;;;5073967;28;20249;-83
2023/09/24 04:46:38;;;;;;;2.10;1.87;;;;;;;;;;5074513;28;20243;-83
2023/09/24 04:49:08;;;;;;;2.60;2.00;;;;;;;;;;5073586;28;20197;-83
2023/09/24 04:51:35;;;;;;;2.30;2.10;;;;;;;;;;5074264;28;20300;-83
2023/09/24 04:54:03;;;;;;;2.17;2.03;;;;;;;;;;5074117;28;20621;-83
2023/09/24 04:56:30;;;;;;;2.00;1.90;;;;;;;;;;5074356;28;20225;-84
2023/09/24 04:58:57;;;;;;;2.50;2.30;;;;;;;;;;5073613;28;20226;-84
2023/09/24 05:01:25;;;;;;;2.00;1.90;;;;;;;;;;5074305;28;20221;-83
2023/09/24 05:03:52;;;;;;;2.50;2.10;;;;;;;;;;5073511;28;20213;-84
2023/09/24 05:06:20;;;;;;;2.07;1.97;;;;;;;;;;5074001;28;20229;-83
2023/09/24 05:08:48;;;;;;;2.10;2.00;;;;;;;;;;5073067;28;20224;-83
2023/09/24 05:11:15;;;;;;;2.10;1.83;;;;;;;;;;5073726;28;20241;-84
2023/09/24 05:13:43;;;;;;;2.20;2.10;;;;;;;;;;5073570;28;20209;-84
2023/09/24 05:16:11;;;;;;;2.10;2.00;;;;;;;;;;5073241;28;20237;-84
2023/09/24 05:18:38;;;;;;;2.07;1.97;;;;;;;;;;5073316;28;20233;-83
2023/09/24 05:21:06;;;;;;;2.10;2.00;;;;;;;;;;5073186;28;20241;-83
2023/09/24 05:23:34;;;;;;;2.10;2.00;;;;;;;;;;5073484;28;20300;-83
2023/09/24 05:26:01;;;;;;;2.10;2.00;;;;;;;;;;5073091;28;20237;-83
2023/09/24 05:28:28;;;;;;;2.10;2.00;;;;;;;;;;5073325;28;20237;-83
2023/09/24 05:30:57;;;;;;;3.40;2.10;;;;;;;;;;5072899;28;20745;-83
2023/09/24 05:33:24;;;;;;;3.07;2.00;;;;;;;;;;5073638;28;20201;-83
2023/09/24 05:35:51;;;;;;;2.10;1.90;;;;;;;;;;5072968;28;20241;-83
2023/09/24 05:38:19;;;;;;;8.30;2.13;;;;;;;;;;5073203;28;20225;-84
2023/09/24 05:40:47;;;;;;;1.80;1.80;;;;;;;;;;5072785;28;20237;-84
2023/09/24 05:43:15;;;;;;;2.57;2.40;;;;;;;;;;5073289;28;20209;-84
2023/09/24 05:45:48;;;;;;;2.40;2.20;;;;;;;;;;5072642;28;20241;-83
2023/09/24 05:48:15;;;;;;;2.40;2.20;;;;;;;;;;5073270;28;20227;-83
2023/09/24 05:50:42;;;;;;;2.20;2.10;;;;;;;;;;5072515;28;20715;-83
2023/09/24 05:53:09;;;;;;;2.47;2.30;;;;;;;;;;5073359;28;20235;-83
2023/09/24 05:55:37;;;;;;;3.87;2.23;;;;;;;;;;5072358;28;20244;-83
2023/09/24 05:58:05;;;;;;;2.53;1.97;;;;;;;;;;5072754;28;20738;-83
2023/09/24 06:00:33;;;;;;;2.83;2.60;;;;;;;;;;5071801;28;20232;-83
2023/09/24 06:03:01;;;;;;;6.17;2.37;;;;;;;;;;5073265;28;20255;-83
2023/09/24 06:05:28;;;;;;;3.83;2.20;;;;;;;;;;5072126;28;20237;-86
2023/09/24 06:07:55;;;;;;;2.20;2.10;;;;;;;;;;5073054;28;20288;-85
2023/09/24 06:10:23;;;;;;;2.60;2.40;;;;;;;;;;5071814;28;20237;-85
2023/09/24 06:12:50;;;;;;;2.67;2.47;;;;;;;;;;5072805;28;20209;-85
2023/09/24 06:15:18;;;;;;;2.50;2.30;;;;;;;;;;5072441;28;20240;-85
2023/09/24 06:17:46;;;;;;;2.30;2.20;;;;;;;;;;5072396;28;20236;-85
2023/09/24 06:20:15;;;;;;;2.70;2.30;;;;;;;;;;5071935;28;20237;-85
2023/09/24 06:22:42;;;;;;;2.53;2.33;;;;;;;;;;5072444;28;20209;-85
2023/09/24 06:25:10;;;;;;;2.80;2.60;;;;;;;;;;5071757;28;20264;-85
2023/09/24 06:27:37;;;;;;;2.90;2.70;;;;;;;;;;5072690;28;20315;-85
2023/09/24 06:30:05;;;;;;;3.23;2.60;;;;;;;;;;5071841;28;20260;-85
2023/09/24 06:32:33;;;;;;;3.17;2.87;;;;;;;;;;5072330;28;20216;-85
2023/09/24 06:35:00;;;;;;;2.83;2.57;;;;;;;;;;5071723;28;20232;-86
2023/09/24 06:37:27;;;;;;;4.57;2.80;;;;;;;;;;5072148;28;20205;-85
2023/09/24 06:39:55;;;;;;;3.10;2.90;;;;;;;;;;5071524;28;20237;-85
2023/09/24 06:42:22;;;;;;;2.67;2.47;;;;;;;;;;5072092;28;20694;-85
2023/09/24 06:44:50;;;;;;;3.00;2.77;;;;;;;;;;5071442;28;20659;-86
2023/09/24 06:47:17;;;;;;;5.83;2.90;;;;;;;;;;5071769;28;20388;-86
2023/09/24 06:49:49;;;;;;;3.43;2.60;;;;;;;;;;5071572;28;20320;-85
2023/09/24 06:52:16;;;;;;;2.67;2.47;;;;;;;;;;5071957;28;20694;-85
2023/09/24 06:54:43;;;;;;;4.10;3.00;;;;;;;;;;5071504;28;20233;-85
2023/09/24 06:57:10;;;;;;;3.77;3.00;;;;;;;;;;5071647;28;20676;-85
2023/09/24 06:59:37;;;;;;;2.97;2.77;;;;;;;;;;5071021;28;20717;-86
2023/09/24 07:02:06;;;;;;;3.50;3.20;;;;;;;;;;5072085;28;20216;-85
2023/09/24 07:04:33;;;;;;;6.03;3.00;;;;;;;;;;5071150;28;20729;-85
2023/09/24 07:07:02;;;;;;;3.20;2.90;;;;;;;;;;5072503;28;20221;-85
2023/09/24 07:09:29;;;;;;;5.37;3.23;;;;;;;;;;5070970;28;20241;-85
2023/09/24 07:11:56;;;;;;;8.77;3.67;;;;;;;;;;5071826;28;20642;-86
2023/09/24 07:14:23;;;;;;;3.87;3.50;;;;;;;;;;5071157;28;20700;-85
2023/09/24 07:16:51;;;;;;;4.27;3.30;;;;;;;;;;5071751;28;20224;-85
2023/09/24 07:19:18;;;;;;;4.47;3.30;;;;;;;;;;5071237;28;20237;-85
2023/09/24 07:21:46;;;;;;;4.03;3.50;;;;;;;;;;5071539;28;20217;-85
2023/09/24 07:24:15;;;;;;;4.30;3.90;;;;;;;;;;5071361;28;20606;-85
2023/09/24 07:26:43;;;;;;;4.27;3.60;;;;;;;;;;5072120;28;20245;-85
2023/09/24 07:29:10;;;;;;;4.83;3.63;;;;;;;;;;5071252;28;20298;-85
2023/09/24 07:31:37;;;;;;;4.90;3.77;;;;;;;;;;5071979;28;20249;-86
2023/09/24 07:34:05;;;;;;;4.73;3.80;;;;;;;;;;5071191;28;20205;-86
2023/09/24 07:36:32;;;;;;;4.23;3.57;;;;;;;;;;5073863;28;20321;-86
2023/09/24 07:38:59;;;;;;;7.40;3.90;;;;;;;;;;5070847;28;20225;-86
2023/09/24 07:41:27;;;;;;;7.00;3.67;;;;;;;;;;5071818;28;20210;-86
2023/09/24 07:43:55;;;;;;;5.80;4.33;;;;;;;;;;5071153;28;20201;-86
2023/09/24 07:46:22;;;;;;;4.80;3.70;;;;;;;;;;5086995;22;20607;-91
2023/09/24 07:48:49;;;;;;;5.57;4.23;;;;;;;;;;5072213;28;20674;-91
2023/09/24 07:51:17;;;;;;;5.43;4.13;;;;;;;;;;5073311;28;20283;-90
2023/09/24 07:53:45;;;;;;;4.43;4.03;;;;;;;;;;5073377;28;20194;-90
2023/09/24 07:56:12;;;;;;;4.23;3.83;;;;;;;;;;5080402;28;20248;-91
2023/09/24 07:58:41;;;;;;;5.77;3.50;;;;;;;;;;5095611;28;20244;-91
2023/09/24 08:01:09;;;;;;;3.80;3.50;;;;;;;;;;5091569;28;20679;-93
2023/09/24 08:03:36;;;;;;;5.67;3.80;;;;;;;;;;5077158;28;20198;-93
2023/09/24 08:06:04;;;;;;;3.90;3.37;;;;;;;;;;5076070;28;20236;-93
2023/09/24 08:08:31;;;;;;;6.10;2.97;;;;;;;;;;5076211;28;20236;-93
2023/09/24 08:10:58;;;;;;;4.53;3.20;;;;;;;;;;5074446;28;20244;-93
2023/09/24 08:13:25;;;;;;;2.57;2.37;;;;;;;;;;5073404;28;20683;-93
2023/09/24 08:15:56;;;;;;;3.13;2.50;;;;;;;;;;5072710;28;20241;-93
2023/09/24 08:18:23;;;;;;;4.83;2.93;;;;;;;;;;5073367;28;20225;-94
2023/09/24 08:20:50;;;;;;;3.53;2.60;;;;;;;;;;5073571;28;20240;-94
2023/09/24 08:23:18;;;;;;;2.97;2.77;;;;;;;;;;5092418;28;20201;-94
2023/09/24 08:25:45;;;;;;;3.80;2.50;;;;;;;;;;5097051;28;20259;-95
2023/09/24 08:28:13;;;;;;;2.50;2.27;;;;;;;;;;5093672;28;20211;-94
2023/09/24 08:30:41;;;;;;;5.90;2.47;;;;;;;;;;5081805;28;20300;-93
2023/09/24 08:33:09;;;;;;;2.83;2.43;;;;;;;;;;5080195;28;20201;-94
2023/09/24 08:35:37;;;;;;;2.67;2.40;;;;;;;;;;5078741;28;20233;-94
2023/09/24 08:38:05;;;;;;;2.93;2.30;;;;;;;;;;5079331;28;20279;-94
2023/09/24 08:40:32;;;;;;;2.90;2.70;;;;;;;;;;5078361;28;20255;-94
2023/09/24 08:43:00;;;;;;;2.73;2.53;;;;;;;;;;5079742;28;20659;-93
2023/09/24 08:45:28;;;;;;;4.73;2.73;;;;;;;;;;5078053;28;20232;-92
2023/09/24 08:47:57;;;;;;;2.73;2.40;;;;;;;;;;5078482;28;20296;-93
2023/09/24 08:50:26;;;;;;;3.33;2.37;;;;;;;;;;5077894;28;20240;-94
2023/09/24 08:52:53;;;;;;;1.93;1.83;;;;;;;;;;5077497;28;20201;-93
2023/09/24 08:55:20;;;;;;;1.83;1.73;;;;;;;;;;5077477;28;20233;-93
2023/09/24 08:57:47;;;;;;;2.10;1.83;;;;;;;;;;5078073;28;20201;-93
2023/09/24 09:00:16;;;;;;;3.13;1.90;;;;;;;;;;5077557;28;20245;-94
2023/09/24 09:02:44;;;;;;;2.23;2.07;;;;;;;;;;5078557;28;20205;-93
2023/09/24 09:05:13;;;;;;;2.70;2.10;;;;;;;;;;5077345;28;20237;-93
2023/09/24 09:07:55;;;;;;;2.20;2.00;;;;;;;;;;5078247;28;20236;-93
2023/09/24 09:10:25;;;;;;;5.23;1.90;;;;;;;;;;5076610;28;20241;-92
2023/09/24 09:13:04;;;;;;;3.07;2.03;;;;;;;;;;5094006;28;20215;-96
2023/09/24 09:15:33;;;;;;;3.30;1.90;;;;;;;;;;5079380;28;20249;-96
2023/09/24 09:18:06;;;;;;;2.63;1.42;;;;;;;;;;5096546;28;20227;-96
2023/09/24 09:20:40;;;;;;;2.40;1.60;;;;;;;;;;5087764;28;20233;-96
2023/09/24 09:23:12;;;;;;;2.13;1.70;;;;;;;;;;5082807;28;20304;-95
2023/09/24 09:25:48;;;;;;;1.95;1.80;;;;;;;;;;5090901;28;20229;-96
2023/09/24 09:28:25;;;;;;;1.90;1.73;;;;;;;;;;5090753;28;20220;-96
2023/09/24 09:30:59;;;;;;;2.05;1.85;;;;;;;;;;5089730;28;20629;-96
2023/09/24 09:33:27;;;;;;;2.53;1.50;;;;;;;;;;5086646;28;20210;-96
2023/09/24 09:35:54;;;;;;;2.78;1.50;;;;;;;;;;5088585;28;20306;-96
2023/09/24 09:38:23;;;;;;;3.17;1.92;;;;;;;;;;5085745;28;20616;-96
2023/09/24 09:40:53;;;;;;;2.20;1.65;;;;;;;;;;5087194;28;20229;-96
2023/09/24 09:43:22;;;;;;;1.70;1.60;;;;;;;;;;5086994;28;20193;-96
2023/09/24 09:45:50;;;;;;;1.70;1.60;;;;;;;;;;5084547;28;20308;-96
2023/09/24 09:48:19;;;;;;;1.23;1.23;;;;;;;;;;5103671;28;20219;-96
2023/09/24 09:50:47;;;;;;;1.85;1.58;;;;;;;;;;5103723;28;20258;-96
2023/09/24 09:53:19;;;;;;;1.45;1.30;;;;;;;;;;5109160;28;20220;-96
2023/09/24 09:55:50;;;;;;;1.75;1.63;;;;;;;;;;5111144;28;20239;-96
2023/09/24 09:58:18;;;;;;;1.88;1.40;;;;;;;;;;5103723;28;20212;-96
2023/09/24 10:00:45;;;;;;;1.52;1.40;;;;;;;;;;5099084;28;20294;-96
2023/09/24 10:03:13;;;;;;;3.55;1.63;;;;;;;;;;5107080;28;20216;-96
2023/09/24 10:05:40;;;;;;;3.58;1.63;;;;;;;;;;5106823;28;20228;-96
2023/09/24 10:08:22;;;;;;;2.03;1.45;;;;;;;;;;5106773;28;20242;-95
2023/09/24 10:10:52;;;;;;;2.05;1.40;;;;;;;;;;5105028;28;20242;-95
2023/09/24 10:13:38;;;;;;;3.08;1.60;;;;;;;;;;5104617;28;20231;-96
2023/09/24 10:16:20;;;;;;;2.00;1.40;;;;;;;;;;5105285;28;20232;-96
2023/09/24 10:18:55;;;;;;;2.58;1.63;;;;;;;;;;5103212;28;20229;-93
2023/09/24 10:21:30;;;;;;;1.48;1.27;;;;;;;;;;5100572;28;20204;-93
2023/09/24 10:23:57;;;;;;;1.95;0.90;;;;;;;;;;5098708;28;20238;-93
2023/09/24 10:26:48;;;;;;;2.22;1.38;;;;;;;;;;5098532;28;20217;-96
2023/09/24 10:29:17;;;;;;;1.20;1.10;;;;;;;;;;5098615;28;20252;-95
2023/09/24 10:32:02;;;;;;;1.73;1.27;;;;;;;;;;5101091;28;20460;-93
2023/09/24 10:34:50;;;;;;;1.95;1.00;;;;;;;;;;5095620;28;20702;-93
2023/09/24 10:37:17;;;;;;;1.75;1.23;;;;;;;;;;5095470;28;20224;-93
2023/09/24 10:39:59;;;;;;;3.25;1.20;;;;;;;;;;5095888;28;20669;-94
2023/09/24 10:42:30;;;;;;;1.30;1.20;;;;;;;;;;5096583;28;20208;-94
2023/09/24 10:45:12;;;;;;;2.17;1.48;;;;;;;;;;5094987;28;20233;-94
2023/09/24 10:47:40;;;;;;;1.65;1.42;;;;;;;;;;5096002;28;20236;-94
2023/09/24 10:50:09;;;;;;;1.98;1.30;;;;;;;;;;5099920;28;20232;-94
2023/09/24 10:52:47;;;;;;;2.10;1.08;;;;;;;;;;5097069;28;20204;-94
2023/09/24 10:55:14;;;;;;;2.05;1.15;;;;;;;;;;5097354;28;20274;-95
2023/09/24 10:57:46;;;;;;;2.47;1.20;;;;;;;;;;5098863;28;20228;-94
2023/09/24 11:00:16;;;;;;;3.05;1.02;;;;;;;;;;5102819;28;20244;-93
2023/09/24 11:02:44;;;;;;;1.10;1.00;;;;;;;;;;5096937;28;20592;-95
2023/09/24 11:05:11;;;;;;;2.50;1.30;;;;;;;;;;5102874;28;20252;-96
2023/09/24 11:07:38;;;;;;;1.63;1.20;;;;;;;;;;5106072;28;20248;-96
2023/09/24 11:10:06;;;;;;;1.15;1.00;;;;;;;;;;5102472;28;20266;-95
2023/09/24 11:12:33;;;;;;;1.10;1.00;;;;;;;;;;5100144;28;20215;-96
2023/09/24 11:15:02;;;;;;;2.78;1.38;;;;;;;;;;5100247;28;20239;-96
2023/09/24 11:17:29;;;;;;;1.85;1.30;;;;;;;;;;5106836;28;20228;-93
2023/09/24 11:19:57;;;;;;;2.13;1.10;;;;;;;;;;5106376;28;20243;-95
2023/09/24 11:22:25;;;;;;;1.38;0.90;;;;;;;;;;5099783;28;20647;-92
2023/09/24 11:25:05;;;;;;;0.73;0.60;;;;;;;;;;5096557;28;20236;-90
2023/09/24 11:27:33;;;;;;;2.05;0.75;;;;;;;;;;5096583;28;20239;-92
2023/09/24 11:30:02;;;;;;;0.75;0.70;;;;;;;;;;5095497;28;20259;-91
2023/09/24 11:32:29;;;;;;;1.35;0.85;;;;;;;;;;5094324;28;20259;-91
2023/09/24 11:35:09;;;;;;;1.00;0.77;;;;;;;;;;5093558;28;20745;-92
2023/09/24 11:37:52;;;;;;;0.98;0.90;;;;;;;;;;5094134;28;20228;-91
2023/09/24 11:40:23;;;;;;;1.05;0.95;;;;;;;;;;5093227;28;20232;-91
2023/09/24 11:42:51;;;;;;;2.50;1.10;;;;;;;;;;5093972;28;20211;-91
2023/09/24 11:45:32;;;;;;;2.13;0.93;;;;;;;;;;5092845;28;20239;-92
2023/09/24 11:47:59;;;;;;;0.80;0.80;;;;;;;;;;5093695;28;20209;-90
2023/09/24 11:50:26;;;;;;;2.72;0.75;;;;;;;;;;5092790;28;20228;-93
2023/09/24 11:52:53;;;;;;;0.90;0.85;;;;;;;;;;5096869;28;20254;-93
2023/09/24 11:55:20;;;;;;;1.33;1.20;;;;;;;;;;5097963;28;20232;-93
2023/09/24 11:57:47;;;;;;;0.70;0.70;;;;;;;;;;5097685;28;20211;-93
2023/09/24 12:00:15;;;;;;;2.58;0.95;;;;;;;;;;5100369;28;20262;-93
2023/09/24 12:02:43;;;;;;;0.75;0.73;;;;;;;;;;5100091;28;20204;-93
2023/09/24 12:05:10;;;;;;;1.33;0.88;;;;;;;;;;5099228;28;20249;-95
2023/09/24 12:07:37;;;;;;;0.73;0.73;;;;;;;;;;5102503;28;20231;-94
2023/09/24 12:10:05;;;;;;;2.85;1.20;;;;;;;;;;5100077;28;20236;-91
2023/09/24 12:12:32;;;;;;;1.27;1.00;;;;;;;;;;5100498;28;20551;-91
2023/09/24 12:14:59;;;;;;;1.90;0.77;;;;;;;;;;5100736;28;20263;-94
2023/09/24 12:17:26;;;;;;;0.88;0.70;;;;;;;;;;5105437;28;20228;-92
2023/09/24 12:19:54;;;;;;;2.28;1.00;;;;;;;;;;5100231;28;20240;-92
2023/09/24 12:22:23;;;;;;;0.88;0.60;;;;;;;;;;5099561;28;20220;-92
2023/09/24 12:24:50;;;;;;;1.85;0.90;;;;;;;;;;5098535;28;20237;-91
2023/09/24 12:27:17;;;;;;;0.85;0.85;;;;;;;;;;5098205;28;20220;-92
2023/09/24 12:29:44;;;;;;;1.70;0.82;;;;;;;;;;5098415;28;20698;-91
2023/09/24 12:32:11;;;;;;;1.13;0.82;;;;;;;;;;5098585;28;20201;-91
2023/09/24 12:34:38;;;;;;;1.83;0.77;;;;;;;;;;5098850;28;20308;-92
2023/09/24 12:37:06;;;;;;;0.75;0.75;;;;;;;;;;5099553;28;20225;-92
2023/09/24 12:39:33;;;;;;;3.38;1.20;;;;;;;;;;5099296;28;20232;-93
2023/09/24 12:42:00;;;;;;;0.80;0.80;;;;;;;;;;5100106;28;20215;-93
2023/09/24 12:44:28;;;;;;;1.00;0.75;;;;;;;;;;5099071;28;20233;-93
2023/09/24 12:46:56;;;;;;;0.93;0.50;;;;;;;;;;5099339;28;20236;-93
2023/09/24 12:49:23;;;;;;;1.70;0.85;;;;;;;;;;5098591;28;20236;-93
2023/09/24 12:51:50;;;;;;;0.63;0.63;;;;;;;;;;5100010;28;20234;-93
2023/09/24 12:54:23;;;;;;;0.63;0.57;;;;;;;;;;5098764;28;20243;-93
2023/09/24 12:56:50;;;;;;;1.30;0.75;;;;;;;;;;5099261;28;20260;-92
2023/09/24 12:59:17;;;;;;;0.90;0.80;;;;;;;;;;5098420;28;20248;-92
2023/09/24 13:01:46;;;;;;;1.25;0.63;;;;;;;;;;5099278;28;20212;-95
2023/09/24 13:04:13;;;;;;;0.63;0.63;;;;;;;;;;5099610;28;20252;-93
2023/09/24 13:06:44;;;;;;;0.98;0.77;;;;;;;;;;5099011;28;20239;-93
2023/09/24 13:09:16;;;;;;;1.17;0.70;;;;;;;;;;5098668;28;20704;-94
2023/09/24 13:11:44;;;;;;;1.52;0.70;;;;;;;;;;5099366;28;20642;-92
2023/09/24 13:14:12;;;;;;;0.57;0.57;;;;;;;;;;5097323;28;20286;-92
2023/09/24 13:16:41;;;;;;;0.70;0.70;;;;;;;;;;5097721;28;20223;-92
2023/09/24 13:19:09;;;;;;;1.25;0.70;;;;;;;;;;5098258;28;20311;-93
2023/09/24 13:21:36;;;;;;;0.43;0.43;;;;;;;;;;5097788;28;20224;-92
2023/09/24 13:24:03;;;;;;;0.50;0.50;;;;;;;;;;5096865;28;20216;-92
2023/09/24 13:26:30;;;;;;;1.38;0.60;;;;;;;;;;5097108;28;20228;-92
2023/09/24 13:28:58;;;;;;;1.75;0.70;;;;;;;;;;5097170;28;20201;-92
2023/09/24 13:31:25;;;;;;;0.77;0.73;;;;;;;;;;5097894;28;20209;-91
2023/09/24 13:33:52;;;;;;;0.60;0.60;;;;;;;;;;5096669;28;20200;-91
2023/09/24 13:36:21;;;;;;;0.70;0.70;;;;;;;;;;5097836;28;20225;-94
2023/09/24 13:38:48;;;;;;;2.25;0.55;;;;;;;;;;5100327;28;20208;-91
2023/09/24 13:41:15;;;;;;;1.17;0.30;;;;;;;;;;5102671;28;20224;-93
2023/09/24 13:43:42;;;;;;;1.20;0.43;;;;;;;;;;5102043;28;20208;-94
2023/09/24 13:46:11;;;;;;;0.55;0.40;;;;;;;;;;5099227;28;20702;-88
2023/09/24 13:48:38;;;;;;;0.65;0.65;;;;;;;;;;5097469;28;20678;-91
2023/09/24 13:51:06;;;;;;;1.25;0.90;;;;;;;;;;5095988;28;20228;-91
2023/09/24 13:53:33;;;;;;;0.60;0.60;;;;;;;;;;5096618;28;20201;-90
2023/09/24 13:56:00;;;;;;;1.02;0.70;;;;;;;;;;5096048;28;20236;-90
2023/09/24 13:58:28;;;;;;;1.27;0.70;;;;;;;;;;5096435;28;20201;-91
2023/09/24 14:00:55;;;;;;;0.43;0.43;;;;;;;;;;5096106;28;20231;-90
2023/09/24 14:03:23;;;;;;;0.50;0.50;;;;;;;;;;5095989;28;20201;-90
2023/09/24 14:05:56;;;;;;;0.50;0.50;;;;;;;;;;5095568;28;20293;-91
2023/09/24 14:13:53;;;;;;;0.93;0.82;;;;;;;;;;5096032;28;20179;-91
2023/09/24 14:16:20;;;;;;;0.93;0.93;;;;;;;;;;5096095;28;20229;-90
2023/09/24 14:18:48;;;;;;;1.45;0.70;;;;;;;;;;5095255;28;20201;-91
2023/09/24 14:21:17;;;;;;;1.20;1.10;;;;;;;;;;5095633;28;20225;-91
2023/09/24 14:23:44;;;;;;;1.17;1.02;;;;;;;;;;5096818;28;20211;-91
2023/09/24 14:26:11;;;;;;;1.67;0.90;;;;;;;;;;5096400;28;20235;-91
2023/09/24 14:28:38;;;;;;;1.65;0.80;;;;;;;;;;5096570;28;20624;-90
2023/09/24 14:31:07;;;;;;;0.57;0.57;;;;;;;;;;5096082;28;20229;-91
2023/09/24 14:33:35;;;;;;;0.70;0.70;;;;;;;;;;5096574;28;20277;-91
2023/09/24 14:36:04;;;;;;;1.20;0.70;;;;;;;;;;5095588;28;20258;-91
2023/09/24 14:38:31;;;;;;;0.73;0.70;;;;;;;;;;5097055;28;20207;-91
2023/09/24 14:40:59;;;;;;;0.98;0.90;;;;;;;;;;5096405;28;20694;-91
2023/09/24 14:43:26;;;;;;;0.90;0.77;;;;;;;;;;5096402;28;20204;-90
2023/09/24 14:45:57;;;;;;;1.70;1.23;;;;;;;;;;5095104;28;20247;-89
2023/09/24 14:48:24;;;;;;;2.03;0.60;;;;;;;;;;5095586;28;20208;-91
2023/09/24 14:50:53;;;;;;;1.50;0.65;;;;;;;;;;5095356;28;20232;-91
2023/09/24 14:53:21;;;;;;;0.50;0.50;;;;;;;;;;5096189;28;20205;-91
2023/09/24 14:55:49;;;;;;;1.20;0.52;;;;;;;;;;5097641;28;20255;-91